Erlands Point, Washington
Current Conditions -  °F | °C
As of 5:15 AM on Friday 28 Nov 2014 (Local Time) from KPWT Reporting Station
Overcast Overcast  
Wind Chill: 52°   Ceiling: 600
Heat Index: 52°   Visibility: 7mi
Dew Point: 52°   Wind: 13mph
Humidity: 100%   Direction: 180°S
Pressure: 29.59"   Gusts: 21mph
Location:  47.5691°N, 122.818°W
Report Text: KPWT 281315Z AUTO 18011G18KT 7SM BKN006 OVC014 11/11 A2959 RMK AO1 P0009
Loading
Personal Weather Stations






























Interactive Weather Map New forecast layout! Learn more

10-Day Weather Forecast

Advertisements
Track Severe Weather on mobile